sensor_id;sensor_type;location;lat;lon;timestamp;P1;durP1;ratioP1;P2;durP2;ratioP2
8594;SDS011;4335;48.860;9.198;2023-01-15T00:00:06;1.47;;;0.90;;
8594;SDS011;4335;48.860;9.198;2023-01-15T00:02:37;1.43;;;1.00;;
8594;SDS011;4335;48.860;9.198;2023-01-15T00:05:07;2.23;;;1.10;;
8594;SDS011;4335;48.860;9.198;2023-01-15T00:07:38;1.33;;;0.90;;
8594;SDS011;4335;48.860;9.198;2023-01-15T00:10:07;1.20;;;1.00;;
8594;SDS011;4335;48.860;9.198;2023-01-15T00:12:36;1.00;;;0.90;;
8594;SDS011;4335;48.860;9.198;2023-01-15T00:15:06;1.27;;;1.00;;
8594;SDS011;4335;48.860;9.198;2023-01-15T00:17:36;3.50;;;1.10;;
8594;SDS011;4335;48.860;9.198;2023-01-15T00:20:04;1.07;;;0.87;;
8594;SDS011;4335;48.860;9.198;2023-01-15T00:22:32;1.57;;;1.40;;
8594;SDS011;4335;48.860;9.198;2023-01-15T00:24:59;1.77;;;1.40;;
8594;SDS011;4335;48.860;9.198;2023-01-15T00:27:45;1.37;;;1.13;;
8594;SDS011;4335;48.860;9.198;2023-01-15T00:30:13;1.30;;;1.20;;
8594;SDS011;4335;48.860;9.198;2023-01-15T00:32:42;1.37;;;0.90;;
8594;SDS011;4335;48.860;9.198;2023-01-15T00:35:10;1.07;;;0.97;;
8594;SDS011;4335;48.860;9.198;2023-01-15T00:37:39;2.13;;;1.40;;
8594;SDS011;4335;48.860;9.198;2023-01-15T00:40:09;2.47;;;0.90;;
8594;SDS011;4335;48.860;9.198;2023-01-15T00:42:45;0.93;;;0.90;;
8594;SDS011;4335;48.860;9.198;2023-01-15T00:45:12;1.13;;;0.97;;
8594;SDS011;4335;48.860;9.198;2023-01-15T00:47:43;1.97;;;0.97;;
8594;SDS011;4335;48.860;9.198;2023-01-15T00:50:12;1.07;;;0.90;;
8594;SDS011;4335;48.860;9.198;2023-01-15T00:52:40;0.90;;;0.90;;
8594;SDS011;4335;48.860;9.198;2023-01-15T00:55:11;1.87;;;1.17;;
8594;SDS011;4335;48.860;9.198;2023-01-15T00:57:38;0.93;;;0.83;;
8594;SDS011;4335;48.860;9.198;2023-01-15T01:00:10;1.50;;;1.10;;
8594;SDS011;4335;48.860;9.198;2023-01-15T01:02:38;0.90;;;0.90;;
8594;SDS011;4335;48.860;9.198;2023-01-15T01:05:06;0.80;;;0.80;;
8594;SDS011;4335;48.860;9.198;2023-01-15T01:07:34;1.77;;;1.27;;
8594;SDS011;4335;48.860;9.198;2023-01-15T01:10:01;1.20;;;0.73;;
8594;SDS011;4335;48.860;9.198;2023-01-15T01:12:32;1.40;;;0.90;;
8594;SDS011;4335;48.860;9.198;2023-01-15T01:15:04;1.60;;;0.83;;
8594;SDS011;4335;48.860;9.198;2023-01-15T01:17:37;1.60;;;0.93;;
8594;SDS011;4335;48.860;9.198;2023-01-15T01:20:05;1.63;;;1.13;;
8594;SDS011;4335;48.860;9.198;2023-01-15T01:22:40;1.53;;;1.10;;
8594;SDS011;4335;48.860;9.198;2023-01-15T01:25:08;1.10;;;1.00;;
8594;SDS011;4335;48.860;9.198;2023-01-15T01:27:39;0.83;;;0.80;;
8594;SDS011;4335;48.860;9.198;2023-01-15T01:30:13;0.70;;;0.70;;
8594;SDS011;4335;48.860;9.198;2023-01-15T01:32:45;0.60;;;0.60;;
8594;SDS011;4335;48.860;9.198;2023-01-15T01:35:15;1.37;;;0.90;;
8594;SDS011;4335;48.860;9.198;2023-01-15T01:37:47;0.93;;;0.80;;
8594;SDS011;4335;48.860;9.198;2023-01-15T01:40:15;0.90;;;0.80;;
8594;SDS011;4335;48.860;9.198;2023-01-15T01:42:46;1.70;;;0.80;;
8594;SDS011;4335;48.860;9.198;2023-01-15T01:45:17;1.07;;;0.70;;
8594;SDS011;4335;48.860;9.198;2023-01-15T01:47:59;1.00;;;1.00;;
8594;SDS011;4335;48.860;9.198;2023-01-15T01:50:29;0.80;;;0.80;;
8594;SDS011;4335;48.860;9.198;2023-01-15T01:52:58;0.80;;;0.80;;
8594;SDS011;4335;48.860;9.198;2023-01-15T01:55:29;0.60;;;0.60;;
8594;SDS011;4335;48.860;9.198;2023-01-15T01:57:59;1.70;;;1.00;;
8594;SDS011;4335;48.860;9.198;2023-01-15T02:00:32;1.37;;;0.90;;
8594;SDS011;4335;48.860;9.198;2023-01-15T02:03:06;0.73;;;0.70;;
8594;SDS011;4335;48.860;9.198;2023-01-15T02:05:36;0.70;;;0.70;;
8594;SDS011;4335;48.860;9.198;2023-01-15T02:08:09;1.63;;;0.63;;
8594;SDS011;4335;48.860;9.198;2023-01-15T02:10:36;1.93;;;0.83;;
8594;SDS011;4335;48.860;9.198;2023-01-15T02:13:06;0.93;;;0.60;;
8594;SDS011;4335;48.860;9.198;2023-01-15T02:15:39;0.70;;;0.70;;
8594;SDS011;4335;48.860;9.198;2023-01-15T02:18:14;1.80;;;0.60;;
8594;SDS011;4335;48.860;9.198;2023-01-15T02:20:47;0.60;;;0.60;;
8594;SDS011;4335;48.860;9.198;2023-01-15T02:23:22;0.73;;;0.70;;
8594;SDS011;4335;48.860;9.198;2023-01-15T02:29:43;0.93;;;0.70;;
8594;SDS011;4335;48.860;9.198;2023-01-15T02:32:20;1.10;;;0.53;;
8594;SDS011;4335;48.860;9.198;2023-01-15T02:34:58;1.00;;;0.90;;
8594;SDS011;4335;48.860;9.198;2023-01-15T02:37:31;0.60;;;0.60;;
8594;SDS011;4335;48.860;9.198;2023-01-15T02:40:03;0.70;;;0.70;;
8594;SDS011;4335;48.860;9.198;2023-01-15T02:42:32;1.40;;;0.57;;
8594;SDS011;4335;48.860;9.198;2023-01-15T02:45:04;0.67;;;0.60;;
8594;SDS011;4335;48.860;9.198;2023-01-15T02:47:36;0.60;;;0.60;;
8594;SDS011;4335;48.860;9.198;2023-01-15T02:50:10;1.03;;;0.50;;
8594;SDS011;4335;48.860;9.198;2023-01-15T02:52:41;0.63;;;0.63;;
8594;SDS011;4335;48.860;9.198;2023-01-15T02:55:11;0.70;;;0.53;;
8594;SDS011;4335;48.860;9.198;2023-01-15T02:57:42;0.73;;;0.60;;
8594;SDS011;4335;48.860;9.198;2023-01-15T03:00:14;0.60;;;0.60;;
8594;SDS011;4335;48.860;9.198;2023-01-15T03:02:45;0.67;;;0.67;;
8594;SDS011;4335;48.860;9.198;2023-01-15T03:05:16;0.70;;;0.70;;
8594;SDS011;4335;48.860;9.198;2023-01-15T03:07:48;0.60;;;0.50;;
8594;SDS011;4335;48.860;9.198;2023-01-15T03:10:18;0.70;;;0.70;;
8594;SDS011;4335;48.860;9.198;2023-01-15T03:12:48;1.50;;;0.60;;
8594;SDS011;4335;48.860;9.198;2023-01-15T03:15:30;0.60;;;0.60;;
8594;SDS011;4335;48.860;9.198;2023-01-15T03:18:25;0.63;;;0.60;;
8594;SDS011;4335;48.860;9.198;2023-01-15T03:20:56;0.83;;;0.63;;
8594;SDS011;4335;48.860;9.198;2023-01-15T03:23:26;1.33;;;0.50;;
8594;SDS011;4335;48.860;9.198;2023-01-15T03:25:58;0.43;;;0.43;;
8594;SDS011;4335;48.860;9.198;2023-01-15T03:28:27;0.70;;;0.70;;
8594;SDS011;4335;48.860;9.198;2023-01-15T03:31:01;1.10;;;1.00;;
8594;SDS011;4335;48.860;9.198;2023-01-15T03:33:28;0.60;;;0.60;;
8594;SDS011;4335;48.860;9.198;2023-01-15T03:35:59;0.73;;;0.70;;
8594;SDS011;4335;48.860;9.198;2023-01-15T03:38:27;0.60;;;0.60;;
8594;SDS011;4335;48.860;9.198;2023-01-15T03:41:03;1.03;;;0.70;;
8594;SDS011;4335;48.860;9.198;2023-01-15T03:43:40;3.87;;;0.90;;
8594;SDS011;4335;48.860;9.198;2023-01-15T03:46:22;0.80;;;0.60;;
8594;SDS011;4335;48.860;9.198;2023-01-15T03:49:00;0.70;;;0.60;;
8594;SDS011;4335;48.860;9.198;2023-01-15T03:51:36;1.33;;;0.80;;
8594;SDS011;4335;48.860;9.198;2023-01-15T03:54:08;0.60;;;0.60;;
8594;SDS011;4335;48.860;9.198;2023-01-15T03:56:44;0.73;;;0.73;;
8594;SDS011;4335;48.860;9.198;2023-01-15T03:59:20;0.90;;;0.90;;
8594;SDS011;4335;48.860;9.198;2023-01-15T04:01:56;1.03;;;0.87;;
8594;SDS011;4335;48.860;9.198;2023-01-15T04:04:25;1.03;;;0.77;;
8594;SDS011;4335;48.860;9.198;2023-01-15T04:06:53;1.13;;;0.60;;
8594;SDS011;4335;48.860;9.198;2023-01-15T04:09:22;0.73;;;0.73;;
8594;SDS011;4335;48.860;9.198;2023-01-15T04:11:50;1.53;;;1.10;;
8594;SDS011;4335;48.860;9.198;2023-01-15T04:14:31;2.43;;;0.87;;
8594;SDS011;4335;48.860;9.198;2023-01-15T04:17:01;1.00;;;0.90;;
8594;SDS011;4335;48.860;9.198;2023-01-15T04:19:28;0.70;;;0.70;;
8594;SDS011;4335;48.860;9.198;2023-01-15T04:21:56;0.83;;;0.80;;
8594;SDS011;4335;48.860;9.198;2023-01-15T04:24:26;1.10;;;0.90;;
8594;SDS011;4335;48.860;9.198;2023-01-15T04:26:57;0.93;;;0.90;;
8594;SDS011;4335;48.860;9.198;2023-01-15T04:29:24;2.00;;;0.70;;
8594;SDS011;4335;48.860;9.198;2023-01-15T04:31:51;0.70;;;0.70;;
8594;SDS011;4335;48.860;9.198;2023-01-15T04:34:23;0.80;;;0.80;;
8594;SDS011;4335;48.860;9.198;2023-01-15T04:36:51;0.83;;;0.80;;
8594;SDS011;4335;48.860;9.198;2023-01-15T04:39:19;1.23;;;0.67;;
8594;SDS011;4335;48.860;9.198;2023-01-15T04:41:50;0.43;;;0.43;;
8594;SDS011;4335;48.860;9.198;2023-01-15T04:44:34;0.80;;;0.80;;
8594;SDS011;4335;48.860;9.198;2023-01-15T04:47:02;0.60;;;0.60;;
8594;SDS011;4335;48.860;9.198;2023-01-15T04:49:34;0.77;;;0.67;;
8594;SDS011;4335;48.860;9.198;2023-01-15T04:52:02;0.60;;;0.60;;
8594;SDS011;4335;48.860;9.198;2023-01-15T04:54:30;0.53;;;0.53;;
8594;SDS011;4335;48.860;9.198;2023-01-15T04:56:58;1.63;;;0.90;;
8594;SDS011;4335;48.860;9.198;2023-01-15T04:59:25;1.07;;;0.90;;
8594;SDS011;4335;48.860;9.198;2023-01-15T05:01:53;0.63;;;0.60;;
8594;SDS011;4335;48.860;9.198;2023-01-15T05:04:21;0.63;;;0.63;;
8594;SDS011;4335;48.860;9.198;2023-01-15T05:06:50;0.50;;;0.50;;
8594;SDS011;4335;48.860;9.198;2023-01-15T05:09:17;0.90;;;0.70;;
8594;SDS011;4335;48.860;9.198;2023-01-15T05:11:47;0.63;;;0.63;;
8594;SDS011;4335;48.860;9.198;2023-01-15T05:14:15;2.83;;;0.60;;
8594;SDS011;4335;48.860;9.198;2023-01-15T05:16:42;1.50;;;0.70;;
8594;SDS011;4335;48.860;9.198;2023-01-15T05:19:10;0.80;;;0.80;;
8594;SDS011;4335;48.860;9.198;2023-01-15T05:21:40;0.60;;;0.60;;
8594;SDS011;4335;48.860;9.198;2023-01-15T05:24:11;0.53;;;0.50;;
8594;SDS011;4335;48.860;9.198;2023-01-15T05:26:44;0.57;;;0.57;;
8594;SDS011;4335;48.860;9.198;2023-01-15T05:29:12;0.80;;;0.80;;
8594;SDS011;4335;48.860;9.198;2023-01-15T05:31:40;1.13;;;0.97;;
8594;SDS011;4335;48.860;9.198;2023-01-15T05:34:14;0.60;;;0.60;;
8594;SDS011;4335;48.860;9.198;2023-01-15T05:36:47;0.80;;;0.60;;
8594;SDS011;4335;48.860;9.198;2023-01-15T05:39:19;0.67;;;0.67;;
8594;SDS011;4335;48.860;9.198;2023-01-15T05:41:52;1.23;;;0.70;;
8594;SDS011;4335;48.860;9.198;2023-01-15T05:44:21;0.60;;;0.60;;
8594;SDS011;4335;48.860;9.198;2023-01-15T05:46:50;1.30;;;0.87;;
8594;SDS011;4335;48.860;9.198;2023-01-15T05:49:23;1.20;;;0.77;;
8594;SDS011;4335;48.860;9.198;2023-01-15T05:51:52;0.70;;;0.70;;
8594;SDS011;4335;48.860;9.198;2023-01-15T05:54:21;1.23;;;0.90;;
8594;SDS011;4335;48.860;9.198;2023-01-15T05:56:51;0.90;;;0.83;;
8594;SDS011;4335;48.860;9.198;2023-01-15T05:59:19;0.80;;;0.80;;
8594;SDS011;4335;48.860;9.198;2023-01-15T06:01:48;0.70;;;0.70;;
8594;SDS011;4335;48.860;9.198;2023-01-15T06:04:16;1.00;;;0.90;;
8594;SDS011;4335;48.860;9.198;2023-01-15T06:06:45;1.30;;;1.20;;
8594;SDS011;4335;48.860;9.198;2023-01-15T06:09:13;0.80;;;0.80;;
8594;SDS011;4335;48.860;9.198;2023-01-15T06:11:42;1.10;;;1.00;;
8594;SDS011;4335;48.860;9.198;2023-01-15T06:14:09;1.27;;;1.17;;
8594;SDS011;4335;48.860;9.198;2023-01-15T06:16:37;1.30;;;1.20;;
8594;SDS011;4335;48.860;9.198;2023-01-15T06:19:08;1.47;;;1.37;;
8594;SDS011;4335;48.860;9.198;2023-01-15T06:21:46;1.33;;;1.23;;
8594;SDS011;4335;48.860;9.198;2023-01-15T06:24:14;1.10;;;1.00;;
8594;SDS011;4335;48.860;9.198;2023-01-15T06:26:47;1.10;;;1.00;;
8594;SDS011;4335;48.860;9.198;2023-01-15T06:29:14;1.10;;;1.00;;
8594;SDS011;4335;48.860;9.198;2023-01-15T06:31:46;1.00;;;0.80;;
8594;SDS011;4335;48.860;9.198;2023-01-15T06:34:16;0.90;;;0.90;;
8594;SDS011;4335;48.860;9.198;2023-01-15T06:36:43;0.63;;;0.63;;
8594;SDS011;4335;48.860;9.198;2023-01-15T06:39:14;0.73;;;0.73;;
8594;SDS011;4335;48.860;9.198;2023-01-15T06:41:41;2.03;;;0.80;;
8594;SDS011;4335;48.860;9.198;2023-01-15T06:44:31;0.63;;;0.63;;
8594;SDS011;4335;48.860;9.198;2023-01-15T06:47:16;0.77;;;0.70;;
8594;SDS011;4335;48.860;9.198;2023-01-15T06:49:49;0.70;;;0.70;;
8594;SDS011;4335;48.860;9.198;2023-01-15T06:52:17;0.70;;;0.70;;
8594;SDS011;4335;48.860;9.198;2023-01-15T06:54:51;0.80;;;0.80;;
8594;SDS011;4335;48.860;9.198;2023-01-15T06:57:19;0.73;;;0.73;;
8594;SDS011;4335;48.860;9.198;2023-01-15T06:59:48;1.00;;;0.60;;
8594;SDS011;4335;48.860;9.198;2023-01-15T07:02:16;0.80;;;0.80;;
8594;SDS011;4335;48.860;9.198;2023-01-15T07:04:45;0.80;;;0.80;;
8594;SDS011;4335;48.860;9.198;2023-01-15T07:07:13;0.80;;;0.80;;
8594;SDS011;4335;48.860;9.198;2023-01-15T07:09:41;1.77;;;0.80;;
8594;SDS011;4335;48.860;9.198;2023-01-15T07:12:08;0.60;;;0.60;;
8594;SDS011;4335;48.860;9.198;2023-01-15T07:14:38;0.70;;;0.70;;
8594;SDS011;4335;48.860;9.198;2023-01-15T07:17:10;0.80;;;0.80;;
8594;SDS011;4335;48.860;9.198;2023-01-15T07:19:47;0.87;;;0.87;;
8594;SDS011;4335;48.860;9.198;2023-01-15T07:22:15;1.23;;;0.80;;
8594;SDS011;4335;48.860;9.198;2023-01-15T07:24:42;0.60;;;0.60;;
8594;SDS011;4335;48.860;9.198;2023-01-15T07:27:09;0.70;;;0.70;;
8594;SDS011;4335;48.860;9.198;2023-01-15T07:29:40;0.70;;;0.70;;
8594;SDS011;4335;48.860;9.198;2023-01-15T07:32:07;0.80;;;0.80;;
8594;SDS011;4335;48.860;9.198;2023-01-15T07:34:37;0.80;;;0.80;;
8594;SDS011;4335;48.860;9.198;2023-01-15T07:37:07;1.10;;;1.00;;
8594;SDS011;4335;48.860;9.198;2023-01-15T07:39:43;2.20;;;0.90;;
8594;SDS011;4335;48.860;9.198;2023-01-15T07:42:11;0.70;;;0.70;;
8594;SDS011;4335;48.860;9.198;2023-01-15T07:44:56;0.90;;;0.90;;
8594;SDS011;4335;48.860;9.198;2023-01-15T07:47:40;0.90;;;0.80;;
8594;SDS011;4335;48.860;9.198;2023-01-15T07:50:31;0.77;;;0.70;;
8594;SDS011;4335;48.860;9.198;2023-01-15T07:52:59;0.70;;;0.70;;
8594;SDS011;4335;48.860;9.198;2023-01-15T07:55:26;0.70;;;0.70;;
8594;SDS011;4335;48.860;9.198;2023-01-15T07:57:54;1.53;;;1.00;;
8594;SDS011;4335;48.860;9.198;2023-01-15T08:00:22;0.70;;;0.70;;
8594;SDS011;4335;48.860;9.198;2023-01-15T08:02:50;0.63;;;0.63;;
8594;SDS011;4335;48.860;9.198;2023-01-15T08:05:18;0.80;;;0.80;;
8594;SDS011;4335;48.860;9.198;2023-01-15T08:07:47;0.70;;;0.70;;
8594;SDS011;4335;48.860;9.198;2023-01-15T08:10:20;1.43;;;0.80;;
8594;SDS011;4335;48.860;9.198;2023-01-15T08:12:49;1.63;;;1.20;;
8594;SDS011;4335;48.860;9.198;2023-01-15T08:15:39;0.97;;;0.97;;
8594;SDS011;4335;48.860;9.198;2023-01-15T08:18:08;0.60;;;0.60;;
8594;SDS011;4335;48.860;9.198;2023-01-15T08:20:38;0.70;;;0.70;;
8594;SDS011;4335;48.860;9.198;2023-01-15T08:23:10;0.93;;;0.87;;
8594;SDS011;4335;48.860;9.198;2023-01-15T08:25:37;2.20;;;1.00;;
8594;SDS011;4335;48.860;9.198;2023-01-15T08:28:08;1.10;;;1.00;;
8594;SDS011;4335;48.860;9.198;2023-01-15T08:30:38;0.80;;;0.80;;
8594;SDS011;4335;48.860;9.198;2023-01-15T08:33:05;0.70;;;0.70;;
8594;SDS011;4335;48.860;9.198;2023-01-15T08:35:33;2.27;;;1.10;;
8594;SDS011;4335;48.860;9.198;2023-01-15T08:38:02;1.50;;;1.20;;
8594;SDS011;4335;48.860;9.198;2023-01-15T08:40:33;1.70;;;1.00;;
8594;SDS011;4335;48.860;9.198;2023-01-15T08:43:21;2.53;;;0.80;;
8594;SDS011;4335;48.860;9.198;2023-01-15T08:45:54;0.80;;;0.80;;
8594;SDS011;4335;48.860;9.198;2023-01-15T08:48:23;1.23;;;1.10;;
8594;SDS011;4335;48.860;9.198;2023-01-15T08:50:50;1.30;;;1.17;;
8594;SDS011;4335;48.860;9.198;2023-01-15T08:53:18;1.37;;;1.00;;
8594;SDS011;4335;48.860;9.198;2023-01-15T08:55:56;1.37;;;1.10;;
8594;SDS011;4335;48.860;9.198;2023-01-15T08:58:33;0.73;;;0.73;;
8594;SDS011;4335;48.860;9.198;2023-01-15T09:01:03;1.17;;;0.90;;
8594;SDS011;4335;48.860;9.198;2023-01-15T09:03:33;1.10;;;1.00;;
8594;SDS011;4335;48.860;9.198;2023-01-15T09:06:07;0.90;;;0.90;;
8594;SDS011;4335;48.860;9.198;2023-01-15T09:08:36;0.83;;;0.83;;
8594;SDS011;4335;48.860;9.198;2023-01-15T09:11:11;1.30;;;1.03;;
8594;SDS011;4335;48.860;9.198;2023-01-15T09:13:38;0.80;;;0.80;;
8594;SDS011;4335;48.860;9.198;2023-01-15T09:16:10;0.90;;;0.90;;
8594;SDS011;4335;48.860;9.198;2023-01-15T09:18:38;0.90;;;0.90;;
8594;SDS011;4335;48.860;9.198;2023-01-15T09:21:05;1.20;;;1.03;;
8594;SDS011;4335;48.860;9.198;2023-01-15T09:23:35;1.20;;;1.00;;
8594;SDS011;4335;48.860;9.198;2023-01-15T09:26:06;0.70;;;0.70;;
8594;SDS011;4335;48.860;9.198;2023-01-15T09:28:50;0.80;;;0.80;;
8594;SDS011;4335;48.860;9.198;2023-01-15T09:31:17;2.10;;;0.90;;
8594;SDS011;4335;48.860;9.198;2023-01-15T09:33:45;2.03;;;1.33;;
8594;SDS011;4335;48.860;9.198;2023-01-15T09:36:15;1.43;;;1.10;;
8594;SDS011;4335;48.860;9.198;2023-01-15T09:38:44;0.80;;;0.80;;
8594;SDS011;4335;48.860;9.198;2023-01-15T09:41:11;0.73;;;0.73;;
8594;SDS011;4335;48.860;9.198;2023-01-15T09:43:57;0.87;;;0.87;;
8594;SDS011;4335;48.860;9.198;2023-01-15T09:46:35;1.67;;;1.20;;
8594;SDS011;4335;48.860;9.198;2023-01-15T09:49:19;2.83;;;1.43;;
8594;SDS011;4335;48.860;9.198;2023-01-15T09:52:02;2.10;;;1.50;;
8594;SDS011;4335;48.860;9.198;2023-01-15T09:54:43;1.60;;;1.30;;
8594;SDS011;4335;48.860;9.198;2023-01-15T09:57:18;1.30;;;1.20;;
8594;SDS011;4335;48.860;9.198;2023-01-15T09:59:54;1.60;;;1.20;;
8594;SDS011;4335;48.860;9.198;2023-01-15T10:02:28;1.83;;;1.40;;
8594;SDS011;4335;48.860;9.198;2023-01-15T10:05:03;1.57;;;1.33;;
8594;SDS011;4335;48.860;9.198;2023-01-15T10:07:40;1.50;;;1.40;;
8594;SDS011;4335;48.860;9.198;2023-01-15T10:10:16;1.77;;;1.33;;
8594;SDS011;4335;48.860;9.198;2023-01-15T10:12:48;1.47;;;1.10;;
8594;SDS011;4335;48.860;9.198;2023-01-15T10:15:29;2.87;;;1.13;;
8594;SDS011;4335;48.860;9.198;2023-01-15T10:18:02;3.57;;;1.67;;
8594;SDS011;4335;48.860;9.198;2023-01-15T10:23:35;1.80;;;1.60;;
8594;SDS011;4335;48.860;9.198;2023-01-15T10:26:12;1.67;;;1.20;;
8594;SDS011;4335;48.860;9.198;2023-01-15T10:28:57;1.27;;;1.00;;
8594;SDS011;4335;48.860;9.198;2023-01-15T10:31:39;1.90;;;1.47;;
8594;SDS011;4335;48.860;9.198;2023-01-15T10:37:28;1.50;;;0.90;;
8594;SDS011;4335;48.860;9.198;2023-01-15T10:42:59;2.73;;;1.20;;
8594;SDS011;4335;48.860;9.198;2023-01-15T10:45:43;1.80;;;1.13;;
8594;SDS011;4335;48.860;9.198;2023-01-15T10:48:16;2.00;;;1.40;;
8594;SDS011;4335;48.860;9.198;2023-01-15T10:50:50;1.53;;;1.10;;
8594;SDS011;4335;48.860;9.198;2023-01-15T10:53:24;1.30;;;1.20;;
8594;SDS011;4335;48.860;9.198;2023-01-15T10:55:58;1.20;;;1.10;;
8594;SDS011;4335;48.860;9.198;2023-01-15T10:58:33;1.73;;;1.37;;
8594;SDS011;4335;48.860;9.198;2023-01-15T11:01:07;1.57;;;1.10;;
8594;SDS011;4335;48.860;9.198;2023-01-15T11:03:40;2.20;;;1.30;;
8594;SDS011;4335;48.860;9.198;2023-01-15T11:06:11;0.80;;;0.80;;
8594;SDS011;4335;48.860;9.198;2023-01-15T11:08:41;1.20;;;1.03;;
8594;SDS011;4335;48.860;9.198;2023-01-15T11:11:18;1.80;;;1.40;;
8594;SDS011;4335;48.860;9.198;2023-01-15T11:14:09;3.60;;;1.70;;
8594;SDS011;4335;48.860;9.198;2023-01-15T11:16:54;0.90;;;0.90;;
8594;SDS011;4335;48.860;9.198;2023-01-15T11:19:41;1.67;;;1.10;;
8594;SDS011;4335;48.860;9.198;2023-01-15T11:22:10;0.80;;;0.80;;
8594;SDS011;4335;48.860;9.198;2023-01-15T11:24:47;1.33;;;1.13;;
8594;SDS011;4335;48.860;9.198;2023-01-15T11:27:17;2.17;;;0.97;;
8594;SDS011;4335;48.860;9.198;2023-01-15T11:29:49;3.30;;;2.13;;
8594;SDS011;4335;48.860;9.198;2023-01-15T11:32:26;1.30;;;0.90;;
8594;SDS011;4335;48.860;9.198;2023-01-15T11:35:00;1.20;;;1.10;;
8594;SDS011;4335;48.860;9.198;2023-01-15T11:37:29;1.33;;;0.93;;
8594;SDS011;4335;48.860;9.198;2023-01-15T11:39:57;1.97;;;0.90;;
8594;SDS011;4335;48.860;9.198;2023-01-15T11:42:32;1.50;;;1.10;;
8594;SDS011;4335;48.860;9.198;2023-01-15T11:45:25;1.20;;;1.13;;
8594;SDS011;4335;48.860;9.198;2023-01-15T11:48:12;2.53;;;2.10;;
8594;SDS011;4335;48.860;9.198;2023-01-15T11:51:05;2.57;;;1.80;;
8594;SDS011;4335;48.860;9.198;2023-01-15T11:53:46;1.27;;;1.13;;
8594;SDS011;4335;48.860;9.198;2023-01-15T11:56:18;1.63;;;1.40;;
8594;SDS011;4335;48.860;9.198;2023-01-15T11:58:49;1.40;;;1.30;;
8594;SDS011;4335;48.860;9.198;2023-01-15T12:01:23;1.10;;;0.97;;
8594;SDS011;4335;48.860;9.198;2023-01-15T12:03:55;2.17;;;1.10;;
8594;SDS011;4335;48.860;9.198;2023-01-15T12:06:26;1.90;;;1.20;;
8594;SDS011;4335;48.860;9.198;2023-01-15T12:08:59;1.30;;;1.20;;
8594;SDS011;4335;48.860;9.198;2023-01-15T12:11:38;2.87;;;1.37;;
8594;SDS011;4335;48.860;9.198;2023-01-15T12:14:40;1.13;;;1.03;;
8594;SDS011;4335;48.860;9.198;2023-01-15T12:17:39;0.90;;;0.83;;
8594;SDS011;4335;48.860;9.198;2023-01-15T12:20:23;1.57;;;1.20;;
8594;SDS011;4335;48.860;9.198;2023-01-15T12:23:00;2.77;;;1.33;;
8594;SDS011;4335;48.860;9.198;2023-01-15T12:25:39;1.43;;;1.13;;
8594;SDS011;4335;48.860;9.198;2023-01-15T12:28:21;1.33;;;1.13;;
8594;SDS011;4335;48.860;9.198;2023-01-15T12:30:54;1.13;;;0.90;;
8594;SDS011;4335;48.860;9.198;2023-01-15T12:33:38;1.43;;;1.20;;
8594;SDS011;4335;48.860;9.198;2023-01-15T12:36:12;1.97;;;1.00;;
8594;SDS011;4335;48.860;9.198;2023-01-15T12:38:47;1.60;;;1.27;;
8594;SDS011;4335;48.860;9.198;2023-01-15T12:41:18;1.60;;;1.00;;
8594;SDS011;4335;48.860;9.198;2023-01-15T12:43:51;1.40;;;1.10;;
8594;SDS011;4335;48.860;9.198;2023-01-15T12:46:40;1.50;;;1.10;;
8594;SDS011;4335;48.860;9.198;2023-01-15T12:49:23;1.27;;;1.17;;
8594;SDS011;4335;48.860;9.198;2023-01-15T12:51:59;1.60;;;1.40;;
8594;SDS011;4335;48.860;9.198;2023-01-15T12:54:35;1.93;;;1.37;;
8594;SDS011;4335;48.860;9.198;2023-01-15T12:57:12;1.33;;;1.00;;
8594;SDS011;4335;48.860;9.198;2023-01-15T12:59:43;2.37;;;1.93;;
8594;SDS011;4335;48.860;9.198;2023-01-15T13:02:17;1.53;;;1.10;;
8594;SDS011;4335;48.860;9.198;2023-01-15T13:04:50;1.50;;;1.40;;
8594;SDS011;4335;48.860;9.198;2023-01-15T13:07:24;2.20;;;1.40;;
8594;SDS011;4335;48.860;9.198;2023-01-15T13:09:59;2.33;;;1.60;;
8594;SDS011;4335;48.860;9.198;2023-01-15T13:12:32;1.47;;;1.10;;
8594;SDS011;4335;48.860;9.198;2023-01-15T13:15:00;3.27;;;2.33;;
8594;SDS011;4335;48.860;9.198;2023-01-15T13:17:32;3.27;;;1.90;;
8594;SDS011;4335;48.860;9.198;2023-01-15T13:20:15;2.60;;;2.33;;
8594;SDS011;4335;48.860;9.198;2023-01-15T13:23:03;2.70;;;1.43;;
8594;SDS011;4335;48.860;9.198;2023-01-15T13:28:33;4.17;;;1.60;;
8594;SDS011;4335;48.860;9.198;2023-01-15T13:31:12;2.23;;;1.50;;
8594;SDS011;4335;48.860;9.198;2023-01-15T13:34:14;3.43;;;1.67;;
8594;SDS011;4335;48.860;9.198;2023-01-15T13:36:52;1.67;;;1.00;;
8594;SDS011;4335;48.860;9.198;2023-01-15T13:39:23;2.40;;;1.13;;
8594;SDS011;4335;48.860;9.198;2023-01-15T13:42:16;2.00;;;1.83;;
8594;SDS011;4335;48.860;9.198;2023-01-15T13:44:57;1.63;;;1.30;;
8594;SDS011;4335;48.860;9.198;2023-01-15T13:47:29;3.73;;;2.17;;
8594;SDS011;4335;48.860;9.198;2023-01-15T13:49:59;3.80;;;2.30;;
8594;SDS011;4335;48.860;9.198;2023-01-15T13:52:29;2.53;;;2.17;;
8594;SDS011;4335;48.860;9.198;2023-01-15T13:54:59;2.70;;;2.03;;
8594;SDS011;4335;48.860;9.198;2023-01-15T13:57:36;2.67;;;1.73;;
8594;SDS011;4335;48.860;9.198;2023-01-15T14:00:06;4.07;;;1.97;;
8594;SDS011;4335;48.860;9.198;2023-01-15T14:02:52;1.63;;;1.40;;
8594;SDS011;4335;48.860;9.198;2023-01-15T14:05:25;3.23;;;1.40;;
8594;SDS011;4335;48.860;9.198;2023-01-15T14:07:55;2.60;;;1.40;;
8594;SDS011;4335;48.860;9.198;2023-01-15T14:10:32;2.67;;;1.20;;
8594;SDS011;4335;48.860;9.198;2023-01-15T14:13:23;3.07;;;1.70;;
8594;SDS011;4335;48.860;9.198;2023-01-15T14:25:14;2.10;;;1.50;;
8594;SDS011;4335;48.860;9.198;2023-01-15T14:28:07;4.17;;;2.00;;
8594;SDS011;4335;48.860;9.198;2023-01-15T14:34:11;3.20;;;1.60;;
8594;SDS011;4335;48.860;9.198;2023-01-15T14:36:52;3.83;;;2.27;;
8594;SDS011;4335;48.860;9.198;2023-01-15T14:39:35;4.30;;;1.90;;
8594;SDS011;4335;48.860;9.198;2023-01-15T14:42:07;3.80;;;1.80;;
8594;SDS011;4335;48.860;9.198;2023-01-15T14:44:59;2.20;;;2.00;;
8594;SDS011;4335;48.860;9.198;2023-01-15T14:47:30;4.10;;;1.70;;
8594;SDS011;4335;48.860;9.198;2023-01-15T14:50:03;2.20;;;1.20;;
8594;SDS011;4335;48.860;9.198;2023-01-15T14:52:52;1.97;;;1.53;;
8594;SDS011;4335;48.860;9.198;2023-01-15T14:55:21;2.70;;;2.00;;
8594;SDS011;4335;48.860;9.198;2023-01-15T14:57:51;2.50;;;1.70;;
8594;SDS011;4335;48.860;9.198;2023-01-15T15:00:28;2.17;;;1.63;;
8594;SDS011;4335;48.860;9.198;2023-01-15T15:03:00;2.27;;;1.80;;
8594;SDS011;4335;48.860;9.198;2023-01-15T15:05:40;2.30;;;1.50;;
8594;SDS011;4335;48.860;9.198;2023-01-15T15:08:12;3.20;;;1.50;;
8594;SDS011;4335;48.860;9.198;2023-01-15T15:10:45;2.43;;;1.43;;
8594;SDS011;4335;48.860;9.198;2023-01-15T15:13:25;3.10;;;1.87;;
8594;SDS011;4335;48.860;9.198;2023-01-15T15:15:58;2.23;;;1.73;;
8594;SDS011;4335;48.860;9.198;2023-01-15T15:18:37;3.20;;;2.20;;
8594;SDS011;4335;48.860;9.198;2023-01-15T15:21:09;3.53;;;1.80;;
8594;SDS011;4335;48.860;9.198;2023-01-15T15:23:43;1.93;;;1.50;;
8594;SDS011;4335;48.860;9.198;2023-01-15T15:26:27;4.10;;;1.97;;
8594;SDS011;4335;48.860;9.198;2023-01-15T15:29:00;7.43;;;3.53;;
8594;SDS011;4335;48.860;9.198;2023-01-15T15:31:35;3.13;;;1.73;;
8594;SDS011;4335;48.860;9.198;2023-01-15T15:34:11;4.10;;;1.40;;
8594;SDS011;4335;48.860;9.198;2023-01-15T15:36:44;1.67;;;1.23;;
8594;SDS011;4335;48.860;9.198;2023-01-15T15:39:15;1.43;;;1.03;;
8594;SDS011;4335;48.860;9.198;2023-01-15T15:41:47;2.77;;;1.50;;
8594;SDS011;4335;48.860;9.198;2023-01-15T15:44:36;2.37;;;1.57;;
8594;SDS011;4335;48.860;9.198;2023-01-15T15:47:36;3.93;;;1.47;;
8594;SDS011;4335;48.860;9.198;2023-01-15T15:50:23;1.77;;;1.40;;
8594;SDS011;4335;48.860;9.198;2023-01-15T15:52:53;1.30;;;1.20;;
8594;SDS011;4335;48.860;9.198;2023-01-15T15:55:22;3.27;;;1.67;;
8594;SDS011;4335;48.860;9.198;2023-01-15T15:57:54;1.80;;;1.40;;
8594;SDS011;4335;48.860;9.198;2023-01-15T16:00:25;1.80;;;1.17;;
8594;SDS011;4335;48.860;9.198;2023-01-15T16:03:03;2.30;;;1.50;;
8594;SDS011;4335;48.860;9.198;2023-01-15T16:05:34;3.20;;;1.40;;
8594;SDS011;4335;48.860;9.198;2023-01-15T16:08:18;1.33;;;0.90;;
8594;SDS011;4335;48.860;9.198;2023-01-15T16:10:51;2.97;;;1.20;;
8594;SDS011;4335;48.860;9.198;2023-01-15T16:13:21;5.40;;;3.23;;
8594;SDS011;4335;48.860;9.198;2023-01-15T16:15:51;2.73;;;1.70;;
8594;SDS011;4335;48.860;9.198;2023-01-15T16:18:23;2.73;;;1.50;;
8594;SDS011;4335;48.860;9.198;2023-01-15T16:20:52;1.17;;;1.00;;